sensor_id;sensor_type;location;lat;lon;timestamp;pressure;altitude;pressure_sealevel;temperature
12061;BMP180;6091;51.432;6.880;2024-02-15T00:00:55;101010.00;;;24.20
12061;BMP180;6091;51.432;6.880;2024-02-15T00:03:25;101007.00;;;24.20
12061;BMP180;6091;51.432;6.880;2024-02-15T00:05:52;101017.00;;;24.20
12061;BMP180;6091;51.432;6.880;2024-02-15T00:08:20;101018.00;;;24.20
12061;BMP180;6091;51.432;6.880;2024-02-15T00:10:48;101015.00;;;24.20
12061;BMP180;6091;51.432;6.880;2024-02-15T00:13:15;101016.00;;;24.20
12061;BMP180;6091;51.432;6.880;2024-02-15T00:15:42;101008.00;;;24.20
12061;BMP180;6091;51.432;6.880;2024-02-15T00:18:09;101012.00;;;24.20
12061;BMP180;6091;51.432;6.880;2024-02-15T00:20:36;101016.00;;;24.20
12061;BMP180;6091;51.432;6.880;2024-02-15T00:23:04;101013.00;;;24.20
12061;BMP180;6091;51.432;6.880;2024-02-15T00:25:33;101014.00;;;24.20
12061;BMP180;6091;51.432;6.880;2024-02-15T00:28:00;101012.00;;;24.20
12061;BMP180;6091;51.432;6.880;2024-02-15T00:30:29;101010.00;;;24.20
12061;BMP180;6091;51.432;6.880;2024-02-15T00:32:56;101021.00;;;24.20
12061;BMP180;6091;51.432;6.880;2024-02-15T00:35:24;101016.00;;;24.20
12061;BMP180;6091;51.432;6.880;2024-02-15T00:37:51;101013.00;;;24.20
12061;BMP180;6091;51.432;6.880;2024-02-15T00:40:19;101008.00;;;24.20
12061;BMP180;6091;51.432;6.880;2024-02-15T00:42:46;101015.00;;;24.20
12061;BMP180;6091;51.432;6.880;2024-02-15T00:45:13;101014.00;;;24.20
12061;BMP180;6091;51.432;6.880;2024-02-15T00:47:41;101017.00;;;24.10
12061;BMP180;6091;51.432;6.880;2024-02-15T00:50:09;101016.00;;;24.10
12061;BMP180;6091;51.432;6.880;2024-02-15T00:52:37;101016.00;;;24.10
12061;BMP180;6091;51.432;6.880;2024-02-15T00:55:04;101017.00;;;24.10
12061;BMP180;6091;51.432;6.880;2024-02-15T00:57:31;101013.00;;;24.10
12061;BMP180;6091;51.432;6.880;2024-02-15T00:59:59;101014.00;;;24.10
12061;BMP180;6091;51.432;6.880;2024-02-15T01:02:27;101022.00;;;24.10
12061;BMP180;6091;51.432;6.880;2024-02-15T01:04:55;101016.00;;;24.10
12061;BMP180;6091;51.432;6.880;2024-02-15T01:07:24;101019.00;;;24.10
12061;BMP180;6091;51.432;6.880;2024-02-15T01:09:56;101018.00;;;24.10
12061;BMP180;6091;51.432;6.880;2024-02-15T01:12:24;101015.00;;;24.10
12061;BMP180;6091;51.432;6.880;2024-02-15T01:14:51;101011.00;;;24.10
12061;BMP180;6091;51.432;6.880;2024-02-15T01:17:19;101004.00;;;24.10
12061;BMP180;6091;51.432;6.880;2024-02-15T01:19:50;101001.00;;;24.10
12061;BMP180;6091;51.432;6.880;2024-02-15T01:22:19;100998.00;;;24.10
12061;BMP180;6091;51.432;6.880;2024-02-15T01:24:46;100990.00;;;24.10
12061;BMP180;6091;51.432;6.880;2024-02-15T01:27:13;100994.00;;;24.10
12061;BMP180;6091;51.432;6.880;2024-02-15T01:29:40;100997.00;;;24.10
12061;BMP180;6091;51.432;6.880;2024-02-15T01:32:09;100993.00;;;24.10
12061;BMP180;6091;51.432;6.880;2024-02-15T01:34:37;100996.00;;;24.00
12061;BMP180;6091;51.432;6.880;2024-02-15T01:37:06;100991.00;;;24.00
12061;BMP180;6091;51.432;6.880;2024-02-15T01:39:33;100992.00;;;24.00
12061;BMP180;6091;51.432;6.880;2024-02-15T01:42:01;100990.00;;;24.00
12061;BMP180;6091;51.432;6.880;2024-02-15T01:44:30;100988.00;;;24.00
12061;BMP180;6091;51.432;6.880;2024-02-15T01:46:59;100990.00;;;24.00
12061;BMP180;6091;51.432;6.880;2024-02-15T01:49:28;100990.00;;;24.00
12061;BMP180;6091;51.432;6.880;2024-02-15T01:51:58;100991.00;;;24.00
12061;BMP180;6091;51.432;6.880;2024-02-15T01:54:27;100990.00;;;24.00
12061;BMP180;6091;51.432;6.880;2024-02-15T01:56:57;100988.00;;;24.00
12061;BMP180;6091;51.432;6.880;2024-02-15T01:59:25;100994.00;;;24.00
12061;BMP180;6091;51.432;6.880;2024-02-15T02:01:52;100990.00;;;24.00
12061;BMP180;6091;51.432;6.880;2024-02-15T02:04:20;100982.00;;;24.00
12061;BMP180;6091;51.432;6.880;2024-02-15T02:06:47;100988.00;;;24.00
12061;BMP180;6091;51.432;6.880;2024-02-15T02:09:15;100982.00;;;24.00
12061;BMP180;6091;51.432;6.880;2024-02-15T02:11:47;100978.00;;;24.00
12061;BMP180;6091;51.432;6.880;2024-02-15T02:14:16;100978.00;;;24.00
12061;BMP180;6091;51.432;6.880;2024-02-15T02:16:43;100971.00;;;24.00
12061;BMP180;6091;51.432;6.880;2024-02-15T02:19:13;100968.00;;;24.00
12061;BMP180;6091;51.432;6.880;2024-02-15T02:21:40;100964.00;;;24.00
12061;BMP180;6091;51.432;6.880;2024-02-15T02:24:14;100960.00;;;24.00
12061;BMP180;6091;51.432;6.880;2024-02-15T02:26:43;100954.00;;;24.00
12061;BMP180;6091;51.432;6.880;2024-02-15T02:29:11;100948.00;;;24.00
12061;BMP180;6091;51.432;6.880;2024-02-15T02:31:39;100955.00;;;24.00
12061;BMP180;6091;51.432;6.880;2024-02-15T02:34:07;100948.00;;;24.00
12061;BMP180;6091;51.432;6.880;2024-02-15T02:36:35;100946.00;;;24.00
12061;BMP180;6091;51.432;6.880;2024-02-15T02:39:03;100950.00;;;24.00
12061;BMP180;6091;51.432;6.880;2024-02-15T02:41:30;100941.00;;;24.00
12061;BMP180;6091;51.432;6.880;2024-02-15T02:43:58;100938.00;;;23.90
12061;BMP180;6091;51.432;6.880;2024-02-15T02:46:26;100943.00;;;23.90
12061;BMP180;6091;51.432;6.880;2024-02-15T02:48:53;100936.00;;;23.90
12061;BMP180;6091;51.432;6.880;2024-02-15T02:51:20;100931.00;;;23.90
12061;BMP180;6091;51.432;6.880;2024-02-15T02:53:48;100933.00;;;23.90
12061;BMP180;6091;51.432;6.880;2024-02-15T02:56:15;100935.00;;;23.90
12061;BMP180;6091;51.432;6.880;2024-02-15T02:58:42;100934.00;;;23.90
12061;BMP180;6091;51.432;6.880;2024-02-15T03:01:10;100937.00;;;23.90
12061;BMP180;6091;51.432;6.880;2024-02-15T03:03:41;100927.00;;;23.90
12061;BMP180;6091;51.432;6.880;2024-02-15T03:06:08;100927.00;;;23.90
12061;BMP180;6091;51.432;6.880;2024-02-15T03:08:35;100919.00;;;23.90
12061;BMP180;6091;51.432;6.880;2024-02-15T03:11:04;100922.00;;;23.90
12061;BMP180;6091;51.432;6.880;2024-02-15T03:13:31;100916.00;;;23.90
12061;BMP180;6091;51.432;6.880;2024-02-15T03:15:58;100915.00;;;23.90
12061;BMP180;6091;51.432;6.880;2024-02-15T03:18:25;100915.00;;;23.90
12061;BMP180;6091;51.432;6.880;2024-02-15T03:20:53;100913.00;;;23.90
12061;BMP180;6091;51.432;6.880;2024-02-15T03:23:20;100906.00;;;23.90
12061;BMP180;6091;51.432;6.880;2024-02-15T03:25:47;100911.00;;;23.90
12061;BMP180;6091;51.432;6.880;2024-02-15T03:28:15;100913.00;;;23.90
12061;BMP180;6091;51.432;6.880;2024-02-15T03:30:43;100908.00;;;23.90
12061;BMP180;6091;51.432;6.880;2024-02-15T03:33:10;100909.00;;;23.90
12061;BMP180;6091;51.432;6.880;2024-02-15T03:35:37;100911.00;;;23.90
12061;BMP180;6091;51.432;6.880;2024-02-15T03:38:05;100909.00;;;23.90
12061;BMP180;6091;51.432;6.880;2024-02-15T03:40:33;100904.00;;;23.90
12061;BMP180;6091;51.432;6.880;2024-02-15T03:43:00;100908.00;;;23.90
12061;BMP180;6091;51.432;6.880;2024-02-15T03:45:28;100903.00;;;23.90
12061;BMP180;6091;51.432;6.880;2024-02-15T03:47:55;100897.00;;;23.90
12061;BMP180;6091;51.432;6.880;2024-02-15T03:50:23;100904.00;;;23.90
12061;BMP180;6091;51.432;6.880;2024-02-15T03:52:50;100913.00;;;23.90
12061;BMP180;6091;51.432;6.880;2024-02-15T03:55:18;100905.00;;;23.90
12061;BMP180;6091;51.432;6.880;2024-02-15T03:57:46;100912.00;;;23.90
12061;BMP180;6091;51.432;6.880;2024-02-15T04:00:14;100907.00;;;23.80
12061;BMP180;6091;51.432;6.880;2024-02-15T04:02:54;100907.00;;;23.90
12061;BMP180;6091;51.432;6.880;2024-02-15T04:05:22;100910.00;;;23.80
12061;BMP180;6091;51.432;6.880;2024-02-15T04:07:50;100911.00;;;23.80
12061;BMP180;6091;51.432;6.880;2024-02-15T04:10:17;100902.00;;;23.80
12061;BMP180;6091;51.432;6.880;2024-02-15T04:12:45;100908.00;;;23.80
12061;BMP180;6091;51.432;6.880;2024-02-15T04:15:13;100905.00;;;23.80
12061;BMP180;6091;51.432;6.880;2024-02-15T04:17:45;100906.00;;;23.80
12061;BMP180;6091;51.432;6.880;2024-02-15T04:20:13;100902.00;;;23.80
12061;BMP180;6091;51.432;6.880;2024-02-15T04:22:42;100894.00;;;23.80
12061;BMP180;6091;51.432;6.880;2024-02-15T04:25:10;100902.00;;;23.80
12061;BMP180;6091;51.432;6.880;2024-02-15T04:27:46;100903.00;;;23.80
12061;BMP180;6091;51.432;6.880;2024-02-15T04:30:16;100900.00;;;23.80
12061;BMP180;6091;51.432;6.880;2024-02-15T04:32:48;100904.00;;;23.80
12061;BMP180;6091;51.432;6.880;2024-02-15T04:35:16;100901.00;;;23.80
12061;BMP180;6091;51.432;6.880;2024-02-15T04:37:43;100904.00;;;23.80
12061;BMP180;6091;51.432;6.880;2024-02-15T04:40:10;100911.00;;;23.80
12061;BMP180;6091;51.432;6.880;2024-02-15T04:42:40;100896.00;;;23.80
12061;BMP180;6091;51.432;6.880;2024-02-15T04:45:09;100905.00;;;23.80
12061;BMP180;6091;51.432;6.880;2024-02-15T04:47:38;100896.00;;;23.80
12061;BMP180;6091;51.432;6.880;2024-02-15T04:50:08;100893.00;;;23.80
12061;BMP180;6091;51.432;6.880;2024-02-15T04:52:36;100897.00;;;23.80
12061;BMP180;6091;51.432;6.880;2024-02-15T04:55:07;100894.00;;;23.80
12061;BMP180;6091;51.432;6.880;2024-02-15T04:57:36;100891.00;;;23.80
12061;BMP180;6091;51.432;6.880;2024-02-15T05:00:05;100892.00;;;23.80
12061;BMP180;6091;51.432;6.880;2024-02-15T05:02:38;100890.00;;;23.80
12061;BMP180;6091;51.432;6.880;2024-02-15T05:05:09;100883.00;;;23.80
12061;BMP180;6091;51.432;6.880;2024-02-15T05:07:37;100883.00;;;23.80
12061;BMP180;6091;51.432;6.880;2024-02-15T05:10:07;100883.00;;;23.80
12061;BMP180;6091;51.432;6.880;2024-02-15T05:12:39;100876.00;;;23.80
12061;BMP180;6091;51.432;6.880;2024-02-15T05:15:08;100885.00;;;23.80
12061;BMP180;6091;51.432;6.880;2024-02-15T05:17:40;100871.00;;;23.70
12061;BMP180;6091;51.432;6.880;2024-02-15T05:20:10;100883.00;;;23.70
12061;BMP180;6091;51.432;6.880;2024-02-15T05:22:40;100876.00;;;23.70
12061;BMP180;6091;51.432;6.880;2024-02-15T05:25:15;100876.00;;;23.70
12061;BMP180;6091;51.432;6.880;2024-02-15T05:27:42;100881.00;;;23.70
12061;BMP180;6091;51.432;6.880;2024-02-15T05:30:11;100878.00;;;23.70
12061;BMP180;6091;51.432;6.880;2024-02-15T05:32:39;100874.00;;;23.70
12061;BMP180;6091;51.432;6.880;2024-02-15T05:35:13;100883.00;;;23.70
12061;BMP180;6091;51.432;6.880;2024-02-15T05:37:40;100877.00;;;23.70
12061;BMP180;6091;51.432;6.880;2024-02-15T05:40:07;100880.00;;;23.70
12061;BMP180;6091;51.432;6.880;2024-02-15T05:42:42;100877.00;;;23.70
12061;BMP180;6091;51.432;6.880;2024-02-15T05:47:53;100877.00;;;23.70
12061;BMP180;6091;51.432;6.880;2024-02-15T05:50:21;100879.00;;;23.70
12061;BMP180;6091;51.432;6.880;2024-02-15T05:52:48;100870.00;;;23.70
12061;BMP180;6091;51.432;6.880;2024-02-15T05:55:15;100879.00;;;23.70
12061;BMP180;6091;51.432;6.880;2024-02-15T05:57:44;100872.00;;;23.70
12061;BMP180;6091;51.432;6.880;2024-02-15T06:00:13;100868.00;;;23.70
12061;BMP180;6091;51.432;6.880;2024-02-15T06:02:49;100872.00;;;23.70
12061;BMP180;6091;51.432;6.880;2024-02-15T06:05:17;100876.00;;;23.70
12061;BMP180;6091;51.432;6.880;2024-02-15T06:07:44;100878.00;;;23.80
12061;BMP180;6091;51.432;6.880;2024-02-15T06:10:14;100880.00;;;23.80
12061;BMP180;6091;51.432;6.880;2024-02-15T06:12:43;100882.00;;;24.00
12061;BMP180;6091;51.432;6.880;2024-02-15T06:15:13;100881.00;;;24.10
12061;BMP180;6091;51.432;6.880;2024-02-15T06:17:44;100877.00;;;24.30
12061;BMP180;6091;51.432;6.880;2024-02-15T06:20:13;100879.00;;;24.40
12061;BMP180;6091;51.432;6.880;2024-02-15T06:22:50;100881.00;;;24.60
12061;BMP180;6091;51.432;6.880;2024-02-15T06:25:18;100879.00;;;24.80
12061;BMP180;6091;51.432;6.880;2024-02-15T06:27:49;100883.00;;;25.00
12061;BMP180;6091;51.432;6.880;2024-02-15T06:30:18;100876.00;;;25.20
12061;BMP180;6091;51.432;6.880;2024-02-15T06:33:04;100892.00;;;25.40
12061;BMP180;6091;51.432;6.880;2024-02-15T06:35:50;100883.00;;;25.60
12061;BMP180;6091;51.432;6.880;2024-02-15T06:38:35;100883.00;;;25.80
12061;BMP180;6091;51.432;6.880;2024-02-15T06:41:21;100887.00;;;26.00
12061;BMP180;6091;51.432;6.880;2024-02-15T06:43:53;100895.00;;;26.20
12061;BMP180;6091;51.432;6.880;2024-02-15T06:46:20;100895.00;;;26.40
12061;BMP180;6091;51.432;6.880;2024-02-15T06:48:48;100897.00;;;26.50
12061;BMP180;6091;51.432;6.880;2024-02-15T06:51:15;100902.00;;;26.70
12061;BMP180;6091;51.432;6.880;2024-02-15T06:53:43;100905.00;;;26.80
12061;BMP180;6091;51.432;6.880;2024-02-15T06:56:11;100891.00;;;26.90
12061;BMP180;6091;51.432;6.880;2024-02-15T06:58:39;100896.00;;;27.10
12061;BMP180;6091;51.432;6.880;2024-02-15T07:01:07;100906.00;;;27.20
12061;BMP180;6091;51.432;6.880;2024-02-15T07:03:36;100902.00;;;27.30
12061;BMP180;6091;51.432;6.880;2024-02-15T07:06:03;100905.00;;;27.40
12061;BMP180;6091;51.432;6.880;2024-02-15T07:08:32;100904.00;;;27.50
12061;BMP180;6091;51.432;6.880;2024-02-15T07:10:59;100903.00;;;27.60
12061;BMP180;6091;51.432;6.880;2024-02-15T07:13:26;100904.00;;;27.60
12061;BMP180;6091;51.432;6.880;2024-02-15T07:15:54;100894.00;;;27.70
12061;BMP180;6091;51.432;6.880;2024-02-15T07:18:21;100901.00;;;27.80
12061;BMP180;6091;51.432;6.880;2024-02-15T07:20:57;100891.00;;;27.80
12061;BMP180;6091;51.432;6.880;2024-02-15T07:23:27;100891.00;;;27.90
12061;BMP180;6091;51.432;6.880;2024-02-15T07:25:54;100885.00;;;27.90
12061;BMP180;6091;51.432;6.880;2024-02-15T07:28:22;100882.00;;;28.00
12061;BMP180;6091;51.432;6.880;2024-02-15T07:30:53;100887.00;;;28.00
12061;BMP180;6091;51.432;6.880;2024-02-15T07:33:24;100877.00;;;28.00
12061;BMP180;6091;51.432;6.880;2024-02-15T07:35:52;100884.00;;;28.00
12061;BMP180;6091;51.432;6.880;2024-02-15T07:38:21;100881.00;;;28.00
12061;BMP180;6091;51.432;6.880;2024-02-15T07:40:50;100876.00;;;28.00
12061;BMP180;6091;51.432;6.880;2024-02-15T07:43:17;100880.00;;;28.00
12061;BMP180;6091;51.432;6.880;2024-02-15T07:45:44;100875.00;;;27.90
12061;BMP180;6091;51.432;6.880;2024-02-15T07:48:14;100873.00;;;28.00
12061;BMP180;6091;51.432;6.880;2024-02-15T07:50:42;100872.00;;;27.90
12061;BMP180;6091;51.432;6.880;2024-02-15T07:53:10;100881.00;;;27.90
12061;BMP180;6091;51.432;6.880;2024-02-15T07:55:38;100883.00;;;27.90
12061;BMP180;6091;51.432;6.880;2024-02-15T07:58:06;100895.00;;;27.80
12061;BMP180;6091;51.432;6.880;2024-02-15T08:00:33;100889.00;;;27.80
12061;BMP180;6091;51.432;6.880;2024-02-15T08:03:01;100888.00;;;27.80
12061;BMP180;6091;51.432;6.880;2024-02-15T08:05:29;100894.00;;;27.70
12061;BMP180;6091;51.432;6.880;2024-02-15T08:07:56;100893.00;;;27.60
12061;BMP180;6091;51.432;6.880;2024-02-15T08:10:25;100894.00;;;27.60
12061;BMP180;6091;51.432;6.880;2024-02-15T08:12:55;100894.00;;;27.60
12061;BMP180;6091;51.432;6.880;2024-02-15T08:15:25;100887.00;;;27.60
12061;BMP180;6091;51.432;6.880;2024-02-15T08:17:56;100898.00;;;27.50
12061;BMP180;6091;51.432;6.880;2024-02-15T08:20:25;100890.00;;;27.50
12061;BMP180;6091;51.432;6.880;2024-02-15T08:22:52;100886.00;;;27.80
12061;BMP180;6091;51.432;6.880;2024-02-15T08:25:20;100890.00;;;27.60
12061;BMP180;6091;51.432;6.880;2024-02-15T08:27:48;100892.00;;;27.90
12061;BMP180;6091;51.432;6.880;2024-02-15T08:30:17;100889.00;;;27.70
12061;BMP180;6091;51.432;6.880;2024-02-15T08:32:50;100891.00;;;27.60
12061;BMP180;6091;51.432;6.880;2024-02-15T08:35:20;100894.00;;;28.00
12061;BMP180;6091;51.432;6.880;2024-02-15T08:37:49;100896.00;;;27.80
12061;BMP180;6091;51.432;6.880;2024-02-15T08:40:18;100891.00;;;27.70
12061;BMP180;6091;51.432;6.880;2024-02-15T08:42:52;100883.00;;;27.70
12061;BMP180;6091;51.432;6.880;2024-02-15T08:45:19;100884.00;;;27.70
12061;BMP180;6091;51.432;6.880;2024-02-15T08:47:47;100873.00;;;27.80
12061;BMP180;6091;51.432;6.880;2024-02-15T08:50:17;100874.00;;;27.80
12061;BMP180;6091;51.432;6.880;2024-02-15T08:52:44;100873.00;;;27.80
12061;BMP180;6091;51.432;6.880;2024-02-15T08:55:12;100873.00;;;27.80
12061;BMP180;6091;51.432;6.880;2024-02-15T08:57:42;100869.00;;;27.90
12061;BMP180;6091;51.432;6.880;2024-02-15T09:00:12;100866.00;;;27.90
12061;BMP180;6091;51.432;6.880;2024-02-15T09:02:46;100860.00;;;27.90
12061;BMP180;6091;51.432;6.880;2024-02-15T09:05:14;100859.00;;;27.90
12061;BMP180;6091;51.432;6.880;2024-02-15T09:07:43;100868.00;;;27.90
12061;BMP180;6091;51.432;6.880;2024-02-15T09:10:13;100863.00;;;28.00
12061;BMP180;6091;51.432;6.880;2024-02-15T09:12:45;100866.00;;;28.00
12061;BMP180;6091;51.432;6.880;2024-02-15T09:15:16;100867.00;;;28.00
12061;BMP180;6091;51.432;6.880;2024-02-15T09:17:45;100870.00;;;28.00
12061;BMP180;6091;51.432;6.880;2024-02-15T09:20:16;100881.00;;;27.90
12061;BMP180;6091;51.432;6.880;2024-02-15T09:22:52;100868.00;;;27.90
12061;BMP180;6091;51.432;6.880;2024-02-15T09:25:22;100870.00;;;27.90
12061;BMP180;6091;51.432;6.880;2024-02-15T09:27:51;100867.00;;;27.90
12061;BMP180;6091;51.432;6.880;2024-02-15T09:30:21;100869.00;;;27.90
12061;BMP180;6091;51.432;6.880;2024-02-15T09:32:52;100859.00;;;27.80
12061;BMP180;6091;51.432;6.880;2024-02-15T09:35:22;100849.00;;;27.80
12061;BMP180;6091;51.432;6.880;2024-02-15T09:37:50;100844.00;;;27.70
12061;BMP180;6091;51.432;6.880;2024-02-15T09:40:19;100845.00;;;27.70
12061;BMP180;6091;51.432;6.880;2024-02-15T09:42:47;100839.00;;;27.70
12061;BMP180;6091;51.432;6.880;2024-02-15T09:45:15;100846.00;;;27.70
12061;BMP180;6091;51.432;6.880;2024-02-15T09:47:45;100844.00;;;27.60
12061;BMP180;6091;51.432;6.880;2024-02-15T09:50:15;100848.00;;;27.60
12061;BMP180;6091;51.432;6.880;2024-02-15T09:52:50;100837.00;;;27.60
12061;BMP180;6091;51.432;6.880;2024-02-15T09:55:27;100844.00;;;27.60
12061;BMP180;6091;51.432;6.880;2024-02-15T09:57:55;100835.00;;;27.60
12061;BMP180;6091;51.432;6.880;2024-02-15T10:00:22;100848.00;;;27.60
12061;BMP180;6091;51.432;6.880;2024-02-15T10:02:51;100834.00;;;27.60
12061;BMP180;6091;51.432;6.880;2024-02-15T10:05:23;100844.00;;;27.60
12061;BMP180;6091;51.432;6.880;2024-02-15T10:07:50;100846.00;;;27.60
12061;BMP180;6091;51.432;6.880;2024-02-15T10:10:23;100851.00;;;27.60
12061;BMP180;6091;51.432;6.880;2024-02-15T10:12:53;100844.00;;;27.60
12061;BMP180;6091;51.432;6.880;2024-02-15T10:15:34;100853.00;;;27.70
12061;BMP180;6091;51.432;6.880;2024-02-15T10:18:06;100851.00;;;27.70
12061;BMP180;6091;51.432;6.880;2024-02-15T10:20:37;100848.00;;;27.70
12061;BMP180;6091;51.432;6.880;2024-02-15T10:23:11;100851.00;;;27.80
12061;BMP180;6091;51.432;6.880;2024-02-15T10:25:39;100850.00;;;27.80
12061;BMP180;6091;51.432;6.880;2024-02-15T10:28:10;100839.00;;;27.90
12061;BMP180;6091;51.432;6.880;2024-02-15T10:30:40;100847.00;;;27.90
12061;BMP180;6091;51.432;6.880;2024-02-15T10:33:26;100848.00;;;27.90
12061;BMP180;6091;51.432;6.880;2024-02-15T10:36:15;100829.00;;;27.90
12061;BMP180;6091;51.432;6.880;2024-02-15T10:38:44;100829.00;;;27.90
12061;BMP180;6091;51.432;6.880;2024-02-15T10:41:11;100829.00;;;28.00
12061;BMP180;6091;51.432;6.880;2024-02-15T10:43:41;100829.00;;;28.00
12061;BMP180;6091;51.432;6.880;2024-02-15T10:46:13;100828.00;;;28.00
12061;BMP180;6091;51.432;6.880;2024-02-15T10:48:41;100826.00;;;28.00
12061;BMP180;6091;51.432;6.880;2024-02-15T10:51:15;100823.00;;;28.00
12061;BMP180;6091;51.432;6.880;2024-02-15T10:53:55;100822.00;;;28.00
12061;BMP180;6091;51.432;6.880;2024-02-15T10:56:37;100819.00;;;28.00
12061;BMP180;6091;51.432;6.880;2024-02-15T10:59:19;100823.00;;;28.00
12061;BMP180;6091;51.432;6.880;2024-02-15T11:01:50;100818.00;;;28.00
12061;BMP180;6091;51.432;6.880;2024-02-15T11:04:23;100817.00;;;28.00
12061;BMP180;6091;51.432;6.880;2024-02-15T11:06:59;100813.00;;;28.00
12061;BMP180;6091;51.432;6.880;2024-02-15T11:09:30;100820.00;;;28.00
12061;BMP180;6091;51.432;6.880;2024-02-15T11:11:58;100809.00;;;28.00
12061;BMP180;6091;51.432;6.880;2024-02-15T11:14:32;100811.00;;;28.00
12061;BMP180;6091;51.432;6.880;2024-02-15T11:17:02;100801.00;;;28.00
12061;BMP180;6091;51.432;6.880;2024-02-15T11:22:15;100806.00;;;28.00
12061;BMP180;6091;51.432;6.880;2024-02-15T11:24:51;100799.00;;;28.10
12061;BMP180;6091;51.432;6.880;2024-02-15T11:27:28;100808.00;;;28.10
12061;BMP180;6091;51.432;6.880;2024-02-15T11:30:00;100799.00;;;28.10
12061;BMP180;6091;51.432;6.880;2024-02-15T11:35:16;100794.00;;;28.10
12061;BMP180;6091;51.432;6.880;2024-02-15T11:37:52;100792.00;;;28.10
12061;BMP180;6091;51.432;6.880;2024-02-15T11:43:09;100786.00;;;28.20
12061;BMP180;6091;51.432;6.880;2024-02-15T11:45:38;100780.00;;;28.30
12061;BMP180;6091;51.432;6.880;2024-02-15T11:48:11;100786.00;;;28.30
12061;BMP180;6091;51.432;6.880;2024-02-15T11:50:40;100779.00;;;28.40
12061;BMP180;6091;51.432;6.880;2024-02-15T11:53:09;100776.00;;;28.40
12061;BMP180;6091;51.432;6.880;2024-02-15T11:55:40;100775.00;;;28.50
12061;BMP180;6091;51.432;6.880;2024-02-15T11:58:09;100768.00;;;28.50
12061;BMP180;6091;51.432;6.880;2024-02-15T12:00:39;100771.00;;;28.60
12061;BMP180;6091;51.432;6.880;2024-02-15T12:03:26;100771.00;;;28.60
12061;BMP180;6091;51.432;6.880;2024-02-15T12:06:31;100766.00;;;28.70
12061;BMP180;6091;51.432;6.880;2024-02-15T12:09:18;100767.00;;;28.90
12061;BMP180;6091;51.432;6.880;2024-02-15T12:12:06;100767.00;;;28.90
12061;BMP180;6091;51.432;6.880;2024-02-15T12:15:02;100767.00;;;29.00
12061;BMP180;6091;51.432;6.880;2024-02-15T12:17:49;100769.00;;;29.20
12061;BMP180;6091;51.432;6.880;2024-02-15T12:20:35;100755.00;;;29.10
12061;BMP180;6091;51.432;6.880;2024-02-15T12:23:03;100756.00;;;29.20
12061;BMP180;6091;51.432;6.880;2024-02-15T12:25:35;100753.00;;;29.50
12061;BMP180;6091;51.432;6.880;2024-02-15T12:28:03;100746.00;;;29.40
12061;BMP180;6091;51.432;6.880;2024-02-15T12:30:34;100733.00;;;29.30
12061;BMP180;6091;51.432;6.880;2024-02-15T12:33:12;100739.00;;;29.30
12061;BMP180;6091;51.432;6.880;2024-02-15T12:35:47;100727.00;;;29.20
12061;BMP180;6091;51.432;6.880;2024-02-15T12:38:15;100728.00;;;29.30
12061;BMP180;6091;51.432;6.880;2024-02-15T12:40:47;100726.00;;;29.40
12061;BMP180;6091;51.432;6.880;2024-02-15T12:43:15;100721.00;;;29.40
12061;BMP180;6091;51.432;6.880;2024-02-15T12:45:43;100722.00;;;29.50
12061;BMP180;6091;51.432;6.880;2024-02-15T12:48:11;100722.00;;;29.50
12061;BMP180;6091;51.432;6.880;2024-02-15T12:50:39;100715.00;;;29.60
12061;BMP180;6091;51.432;6.880;2024-02-15T12:53:07;100722.00;;;29.70
12061;BMP180;6091;51.432;6.880;2024-02-15T12:55:40;100723.00;;;29.70
12061;BMP180;6091;51.432;6.880;2024-02-15T12:58:14;100717.00;;;29.80
12061;BMP180;6091;51.432;6.880;2024-02-15T13:00:43;100717.00;;;29.80
12061;BMP180;6091;51.432;6.880;2024-02-15T13:03:12;100712.00;;;29.90
12061;BMP180;6091;51.432;6.880;2024-02-15T13:05:43;100717.00;;;29.90
12061;BMP180;6091;51.432;6.880;2024-02-15T13:08:12;100703.00;;;29.90
12061;BMP180;6091;51.432;6.880;2024-02-15T13:10:41;100706.00;;;29.90
12061;BMP180;6091;51.432;6.880;2024-02-15T13:13:09;100701.00;;;29.90
12061;BMP180;6091;51.432;6.880;2024-02-15T13:15:37;100692.00;;;29.90
12061;BMP180;6091;51.432;6.880;2024-02-15T13:18:07;100696.00;;;29.90
12061;BMP180;6091;51.432;6.880;2024-02-15T13:20:41;100693.00;;;29.80
12061;BMP180;6091;51.432;6.880;2024-02-15T13:23:11;100686.00;;;29.80
12061;BMP180;6091;51.432;6.880;2024-02-15T13:25:54;100682.00;;;29.80
12061;BMP180;6091;51.432;6.880;2024-02-15T13:28:24;100680.00;;;29.70
12061;BMP180;6091;51.432;6.880;2024-02-15T13:30:52;100680.00;;;29.70
12061;BMP180;6091;51.432;6.880;2024-02-15T13:33:23;100667.00;;;29.60
12061;BMP180;6091;51.432;6.880;2024-02-15T13:35:54;100664.00;;;29.50
12061;BMP180;6091;51.432;6.880;2024-02-15T13:38:22;100664.00;;;29.50
12061;BMP180;6091;51.432;6.880;2024-02-15T13:40:51;100658.00;;;29.40
12061;BMP180;6091;51.432;6.880;2024-02-15T13:43:23;100664.00;;;29.30
12061;BMP180;6091;51.432;6.880;2024-02-15T13:45:50;100656.00;;;29.20
12061;BMP180;6091;51.432;6.880;2024-02-15T13:48:19;100652.00;;;29.20
12061;BMP180;6091;51.432;6.880;2024-02-15T13:50:46;100651.00;;;29.10
12061;BMP180;6091;51.432;6.880;2024-02-15T13:53:14;100649.00;;;29.10
12061;BMP180;6091;51.432;6.880;2024-02-15T13:55:42;100649.00;;;29.10
12061;BMP180;6091;51.432;6.880;2024-02-15T13:58:09;100650.00;;;29.00
12061;BMP180;6091;51.432;6.880;2024-02-15T14:00:40;100647.00;;;29.00
12061;BMP180;6091;51.432;6.880;2024-02-15T14:03:12;100649.00;;;29.00
12061;BMP180;6091;51.432;6.880;2024-02-15T14:05:42;100643.00;;;28.90
12061;BMP180;6091;51.432;6.880;2024-02-15T14:08:12;100638.00;;;28.90
12061;BMP180;6091;51.432;6.880;2024-02-15T14:10:40;100638.00;;;28.90
12061;BMP180;6091;51.432;6.880;2024-02-15T14:13:08;100633.00;;;28.90
12061;BMP180;6091;51.432;6.880;2024-02-15T14:15:37;100632.00;;;28.90
12061;BMP180;6091;51.432;6.880;2024-02-15T14:18:09;100632.00;;;29.00
12061;BMP180;6091;51.432;6.880;2024-02-15T14:20:47;100615.00;;;28.90
12061;BMP180;6091;51.432;6.880;2024-02-15T14:23:15;100623.00;;;29.00
12061;BMP180;6091;51.432;6.880;2024-02-15T14:25:43;100618.00;;;29.00
12061;BMP180;6091;51.432;6.880;2024-02-15T14:28:14;100620.00;;;29.00
12061;BMP180;6091;51.432;6.880;2024-02-15T14:30:43;100613.00;;;29.00
12061;BMP180;6091;51.432;6.880;2024-02-15T14:33:29;100612.00;;;28.90
12061;BMP180;6091;51.432;6.880;2024-02-15T14:36:02;100610.00;;;29.00